• Join FlightAware (Why Join?)
  • Login
  • US Flag 
03:48PM EDT


 

Airport Tracker/Info


-or-


 

Live Flight TrackerFlight Track Log ✈ LAK145 ✈ 22-Mar-2014 ✈ KBUF - KPWK

Flight Track Log - Related Links

Times and Time Zones

All times are in EDT time to prevent confusion due to time zone crossing. See the LAK145 flight status page for this flight to view local times or setup timezone preferences in your user account.

Time Position Orientation Groundspeed Altitude Reporting Facility
EDT Latitude Longitude Course Direction KTS MPH feet Rate Location/Type
08:01PM 42.9333 -78.7333 216° Southwest 163 188 2,000  Level Buffalo TRACON
08:03PM 42.8667 -78.8000 216° Southwest 246 283 6,600 2,820 Climbing Buffalo TRACON
08:04PM 42.8514 -78.9172 260° West 238 274 10,000 1,980 Climbing Cleveland Center
08:05PM 42.8814 -78.9958 298° West 246 283 11,700 1,800 Climbing Cleveland Center
08:06PM 42.8792 -79.0858 268° West 239 275 13,700 1,560 Climbing Cleveland Center
08:07PM 42.8653 -79.1736 258° West 238 274 14,900 540 Climbing Cleveland Center
08:08PM 42.8494 -79.2719 258° West 263 303 14,900  Level Cleveland Center
08:09PM 42.8331 -79.3686 257° West 266 306 14,900 900 Level Cleveland Center
08:10PM 42.8131 -79.4872 257° West 269 310 16,800 2,580 Climbing Cleveland Center
08:11PM 42.7967 -79.5831 257° West 264 304 20,200 3,060 Climbing Cleveland Center
08:12PM 42.7811 -79.6769 257° West 259 298 23,100 2,700 Climbing Cleveland Center
08:13PM 42.7661 -79.7731 258° West 259 298 25,700 2,280 Climbing Cleveland Center
08:14PM 42.7489 -79.8728 257° West 268 308 27,800 2,160 Climbing Cleveland Center
08:15PM 42.7297 -79.9817 257° West 273 314 30,100 2,160 Climbing Cleveland Center
08:16PM 42.7114 -80.0786 256° West 264 304 32,200 1,800 Climbing Cleveland Center
08:17PM 42.6964 -80.1753 258° West 262 302 33,800 840 Climbing Cleveland Center
08:18PM 42.6789 -80.2758 257° West 269 310 34,000 60 Climbing Cleveland Center
08:19PM 42.6567 -80.3892 255° West 304 350 34,000  Level Cleveland Center
08:20PM 42.6164 -80.5019 244° Southwest 327 376 34,000 240 Level Cleveland Center
08:21PM 42.5847 -80.6181 250° West 327 376 34,600 1,020 Climbing Cleveland Center
08:22PM 42.5836 -80.7361 269° West 314 361 36,100 1,380 Climbing Cleveland Center
08:23PM 42.5825 -80.8467 269° West 301 346 37,500 1,140 Climbing Cleveland Center
08:24PM 42.5808 -80.9525 269° West 288 331 38,500 840 Climbing Cleveland Center
08:25PM 42.5825 -81.0606 271° West 286 329 39,300 720 Climbing Cleveland Center
08:26PM 42.5797 -81.1714 268° West 288 331 40,000 300 Climbing Cleveland Center
08:27PM 42.5822 -81.2872 272° West 299 344 40,000  Level Cleveland Center
08:28PM 42.5797 -81.4103 268° West 313 360 40,000  Level Cleveland Center
08:29PM 42.5808 -81.5358 271° West 325 374 40,000  Level Cleveland Center
08:30PM 42.5786 -81.6619 269° West 329 379 40,000  Level Cleveland Center
08:32PM 42.5794 -81.7922 271° West 347 399 40,000  Level Cleveland Center
08:33PM 42.5772 -81.9178 269° West 338 389 40,000  Level Cleveland Center
08:34PM 42.5767 -82.0731 270° West 340 391 40,000  Level Cleveland Center
08:35PM 42.5739 -82.2003 268° West 340 391 40,000  Level Cleveland Center
08:36PM 42.5739 -82.3283 270° West 340 391 40,000  Level Cleveland Center
08:37PM 42.5722 -82.4561 269° West 340 391 40,000  Level Cleveland Center
08:38PM 42.5706 -82.5825 269° West 340 391 40,000  Level Cleveland Center
08:39PM 42.5681 -82.7089 269° West 339 390 40,000  Level Cleveland Center
08:40PM 42.5650 -82.8369 268° West 339 390 40,000 -420 Level Cleveland Center
08:41PM 42.5647 -82.9656 270° West 341 392 39,200 -840 Descending Cleveland Center
08:42PM 42.5606 -83.0975 268° West 349 402 38,300 -600 Descending Cleveland Center
08:43PM 42.5586 -83.2522 269° West 350 403 38,000 -180 Descending Cleveland Center
08:44PM 42.5547 -83.3761 268° West 335 386 38,000 -180 Level Cleveland Center
08:45PM 42.5522 -83.5011 268° West 335 386 37,700 -840 Descending Cleveland Center
08:46PM 42.5506 -83.6261 269° West 336 387 36,300 -1,380 Descending Cleveland Center
08:47PM 42.5467 -83.7442 267° West 320 368 34,900 -1,320 Descending Cleveland Center
08:48PM 42.5447 -83.8586 269° West 309 356 33,700 -1,380 Descending Cleveland Center
08:49PM 42.5411 -83.9697 268° West 302 348 32,200 -840 Descending Cleveland Center
08:50PM 42.5392 -84.0783 269° West 294 338 32,000 -120 Descending Cleveland Center
08:51PM 42.5347 -84.2097 267° West 292 336 32,000  Level Cleveland Center
08:52PM 42.5283 -84.3164 265° West 290 334 32,000  Level Cleveland Center
08:53PM 42.5139 -84.4272 260° West 299 344 32,000  Level Cleveland Center
08:54PM 42.5033 -84.5444 263° West 313 360 32,000 -180 Level Cleveland Center
08:55PM 42.5128 -84.6636 276° West 319 367 31,700 -840 Descending Cleveland Center
08:56PM 42.5186 -84.7714 274° West 303 349 30,300 -1,320 Descending Cleveland Center
08:57PM 42.5269 -84.8831 276° West 298 343 29,100 -1,140 Descending Cleveland Center
08:58PM 42.5314 -84.9953 273° West 300 345 28,100 -600 Descending Cleveland Center
08:59PM 42.5364 -85.1125 273° West 308 354 28,000 -60 Descending Cleveland Center
09:00PM 42.5397 -85.2317 272° West 315 362 28,000 -660 Level Cleveland Center
09:01PM 42.5478 -85.3686 275° West 308 354 26,700 -1,200 Descending Cleveland Center
09:02PM 42.5364 -85.4850 262° West 318 366 25,600 -1,140 Descending Cleveland Center
09:03PM 42.5156 -85.6003 256° West 318 366 24,500 -1,140 Descending Cleveland Center
09:04PM 42.5056 -85.7142 263° West 307 353 23,400 -1,140 Descending Cleveland Center
09:05PM 42.4917 -85.8233 260° West 300 345 22,200 -1,140 Descending Cleveland Center
09:06PM 42.4831 -85.9325 264° West 296 341 21,100 -1,140 Descending Cleveland Center
09:07PM 42.4717 -86.0394 262° West 292 336 19,900 -1,320 Descending Cleveland Center
09:08PM 42.4625 -86.1414 263° West 281 323 18,500 -1,380 Descending Cleveland Center
09:09PM 42.4594 -86.2428 268° West 272 313 17,200 -1,380 Descending Cleveland Center
09:11PM 42.4494 -86.3872 265° West 275 316 15,200 -1,380 Descending Chicago Center
09:12PM 42.4453 -86.4942 267° West 283 326 13,800 -1,440 Descending Chicago Center
09:13PM 42.4381 -86.6003 265° West 283 326 12,300 -1,620 Descending Chicago Center
09:14PM 42.4331 -86.7308 267° West 287 330 10,600 -1,620 Descending Chicago Center
09:15PM 42.4283 -86.8236 266° West 252 290 9,100 -1,440 Descending Chicago Center
09:16PM 42.4206 -86.9147 263° West 247 284 7,700 -1,440 Descending Chicago Center
09:17PM 42.4178 -87.0061 268° West 246 283 6,200 -1,500 Descending Chicago Center
09:18PM 42.4092 -87.0917 262° West 234 269 4,700 -1,440 Descending Chicago Center
09:19PM 42.4067 -87.1839 268° West 239 275 3,300 -840 Descending Chicago Center
09:20PM 42.4014 -87.2769 266° West 241 277 3,100 -120 Descending Chicago Center
09:22PM 42.3667 -87.4500 255° West 229 264 3,000 -60 Descending Chicago TRACON
09:23PM 42.3500 -87.5167 251° West 229 264 3,000  Level Chicago TRACON
09:24PM 42.3167 -87.5833 236° Southwest 225 259 3,000  Level Chicago TRACON
09:25PM 42.3000 -87.6833 257° West 225 259 3,000  Level Chicago TRACON
09:26PM 42.2667 -87.7667 242° Southwest 227 261 3,000  Level Chicago TRACON
09:27PM 42.2500 -87.8333 251° West 211 243 3,000  Level Chicago TRACON
09:28PM 42.2500 -87.9167 270° West 185 213 3,000 -240 Level Chicago TRACON
09:29PM 42.2333 -87.9833 251° West 205 236 2,500 -480 Descending Chicago TRACON
09:30PM 42.2000 -87.9500 143° Southeast 158 182 2,200 -420 Descending Chicago TRACON
09:31PM 42.1667 -87.9333 160° South 140 161 1,800 -240 Descending Chicago TRACON
09:32PM 42.1369 -87.8808 127° Southeast 132 152 1,700 -120 Descending Chicago Center